createdAt,value
2018-12-07T00:00:06.208Z,13.70
2018-12-07T00:02:34.276Z,13.70
2018-12-07T00:05:02.346Z,13.80
2018-12-07T00:07:30.433Z,13.80
2018-12-07T00:09:58.503Z,13.80
2018-12-07T00:12:26.573Z,13.80
2018-12-07T00:14:54.665Z,13.80
2018-12-07T00:17:22.973Z,13.80
2018-12-07T00:19:51.056Z,13.80
2018-12-07T00:22:19.509Z,13.80
2018-12-07T00:24:47.580Z,13.90
2018-12-07T00:27:15.676Z,13.90
2018-12-07T00:29:43.757Z,13.90
2018-12-07T00:32:11.840Z,13.90
2018-12-07T00:34:39.916Z,13.90
2018-12-07T00:37:08.010Z,13.90
2018-12-07T00:39:36.079Z,13.90
2018-12-07T00:42:04.164Z,13.90
2018-12-07T00:44:32.623Z,14.00
2018-12-07T00:47:00.715Z,14.00
2018-12-07T00:49:28.779Z,14.00
2018-12-07T00:51:56.876Z,14.00
2018-12-07T00:54:24.958Z,14.00
2018-12-07T00:56:53.030Z,14.00
2018-12-07T00:59:21.132Z,14.10
2018-12-07T01:01:49.412Z,14.00
2018-12-07T01:04:17.579Z,14.10
2018-12-07T01:06:45.899Z,14.10
2018-12-07T01:09:13.971Z,14.10
2018-12-07T01:11:42.045Z,14.10
2018-12-07T01:14:10.221Z,14.10
2018-12-07T01:16:38.326Z,14.10
2018-12-07T01:19:06.396Z,14.20
2018-12-07T01:21:34.472Z,14.20
2018-12-07T01:24:02.564Z,14.20
2018-12-07T01:26:30.642Z,14.20
2018-12-07T01:28:58.749Z,14.20
2018-12-07T01:31:26.834Z,14.20
2018-12-07T01:33:54.905Z,14.20
2018-12-07T01:36:23.026Z,14.30
2018-12-07T01:38:51.106Z,14.30
2018-12-07T01:41:19.185Z,14.30
2018-12-07T01:43:47.252Z,14.30
2018-12-07T01:46:15.324Z,14.30
2018-12-07T01:48:45.042Z,14.30
2018-12-07T01:51:13.146Z,14.30
2018-12-07T01:53:41.213Z,14.30
2018-12-07T01:56:09.312Z,14.30
2018-12-07T01:58:37.401Z,14.40
2018-12-07T02:01:05.486Z,14.40
2018-12-07T02:03:33.874Z,14.40
2018-12-07T02:06:01.954Z,14.40
2018-12-07T02:08:30.023Z,14.40
2018-12-07T02:10:58.112Z,14.40
2018-12-07T02:13:26.500Z,14.40
2018-12-07T02:15:54.589Z,14.40
2018-12-07T02:18:22.644Z,14.40
2018-12-07T02:20:50.747Z,14.50
2018-12-07T02:23:18.901Z,14.50
2018-12-07T02:25:46.973Z,14.50
2018-12-07T02:28:15.045Z,14.50
2018-12-07T02:30:43.124Z,14.50
2018-12-07T02:33:12.036Z,14.50
2018-12-07T02:35:40.938Z,14.50
2018-12-07T02:38:09.106Z,14.50
2018-12-07T02:40:37.285Z,14.50
2018-12-07T02:43:05.367Z,14.50
2018-12-07T02:45:33.440Z,14.50
2018-12-07T02:48:01.504Z,14.50
2018-12-07T02:50:29.591Z,14.50
2018-12-07T02:52:57.659Z,14.50
2018-12-07T02:55:25.732Z,14.50
2018-12-07T02:57:54.105Z,14.50
2018-12-07T03:00:22.179Z,14.50
2018-12-07T03:02:50.328Z,14.50
2018-12-07T03:05:18.964Z,14.50
2018-12-07T03:07:47.050Z,14.50
2018-12-07T03:10:15.120Z,14.50
2018-12-07T03:12:43.215Z,14.50
2018-12-07T03:15:11.384Z,14.40
2018-12-07T03:17:39.452Z,14.50
2018-12-07T03:20:08.843Z,14.50
2018-12-07T03:22:36.918Z,14.50
2018-12-07T03:25:05.593Z,14.40
2018-12-07T03:27:33.686Z,14.40
2018-12-07T03:30:01.765Z,14.40
2018-12-07T03:32:29.838Z,14.40
2018-12-07T03:34:58.012Z,14.40
2018-12-07T03:37:26.100Z,14.40
2018-12-07T03:39:54.174Z,14.40
2018-12-07T03:42:22.474Z,14.40
2018-12-07T03:44:50.550Z,14.40
2018-12-07T03:47:18.618Z,14.40
2018-12-07T03:49:46.698Z,14.40
2018-12-07T03:52:14.751Z,14.40
2018-12-07T03:54:42.825Z,14.40
2018-12-07T03:57:10.925Z,14.40
2018-12-07T03:59:38.989Z,14.40
2018-12-07T04:02:07.071Z,14.40
2018-12-07T04:04:35.180Z,14.30
2018-12-07T04:07:03.723Z,14.40
2018-12-07T04:09:31.795Z,14.40
2018-12-07T04:11:59.897Z,14.40
2018-12-07T04:14:28.030Z,14.40
2018-12-07T04:16:56.103Z,14.40
2018-12-07T04:19:24.203Z,14.40
2018-12-07T04:21:52.281Z,14.40
2018-12-07T04:24:20.352Z,14.40
2018-12-07T04:26:48.881Z,14.30
2018-12-07T04:29:17.046Z,14.40
2018-12-07T04:31:45.118Z,14.40
2018-12-07T04:34:13.274Z,14.40
2018-12-07T04:36:41.426Z,14.40
2018-12-07T04:39:09.501Z,14.40
2018-12-07T04:41:37.679Z,14.40
2018-12-07T04:44:05.744Z,14.40
2018-12-07T04:46:33.828Z,14.40
2018-12-07T04:49:02.195Z,14.40
2018-12-07T04:51:30.267Z,14.40
2018-12-07T04:53:58.352Z,14.40
2018-12-07T04:56:26.439Z,14.40
2018-12-07T04:58:54.512Z,14.40
2018-12-07T05:01:22.582Z,14.40
2018-12-07T05:03:50.745Z,14.40
2018-12-07T05:06:18.816Z,14.50
2018-12-07T05:08:47.144Z,14.50
2018-12-07T05:11:15.549Z,14.50
2018-12-07T05:13:43.622Z,14.50
2018-12-07T05:16:11.707Z,14.50
2018-12-07T05:18:39.791Z,14.50
2018-12-07T05:21:07.880Z,14.50
2018-12-07T05:23:35.949Z,14.40
2018-12-07T05:26:04.026Z,14.40
2018-12-07T05:28:32.182Z,14.50
2018-12-07T05:31:01.556Z,14.50
2018-12-07T05:33:30.230Z,14.50
2018-12-07T05:35:58.314Z,14.50
2018-12-07T05:38:26.401Z,14.50
2018-12-07T05:40:54.499Z,14.50
2018-12-07T05:43:22.556Z,14.50
2018-12-07T05:45:50.625Z,14.50
2018-12-07T05:48:23.618Z,14.50
2018-12-07T05:50:48.793Z,14.50
2018-12-07T05:53:16.851Z,14.50
2018-12-07T05:55:45.136Z,14.50
2018-12-07T05:58:13.209Z,14.50
2018-12-07T06:00:41.297Z,14.50
2018-12-07T06:03:09.410Z,14.50
2018-12-07T06:05:37.486Z,14.50
2018-12-07T06:08:05.557Z,14.60
2018-12-07T06:10:34.089Z,14.60
2018-12-07T06:13:02.161Z,14.60
2018-12-07T06:15:30.236Z,14.60
2018-12-07T06:17:58.354Z,14.60
2018-12-07T06:20:26.425Z,14.60
2018-12-07T06:22:54.509Z,14.60
2018-12-07T06:25:22.591Z,14.60
2018-12-07T06:27:50.778Z,14.60
2018-12-07T06:30:18.854Z,14.60
2018-12-07T06:32:46.939Z,14.70
2018-12-07T06:35:15.015Z,14.60
2018-12-07T06:37:43.102Z,14.70
2018-12-07T06:40:11.481Z,14.70
2018-12-07T06:42:39.545Z,14.70
2018-12-07T06:45:07.782Z,14.70
2018-12-07T06:47:35.883Z,14.70
2018-12-07T06:50:07.167Z,14.70
2018-12-07T06:52:35.261Z,14.70
2018-12-07T06:55:03.945Z,14.70
2018-12-07T06:57:32.023Z,14.70
2018-12-07T07:00:00.096Z,14.70
2018-12-07T07:02:28.240Z,14.80
2018-12-07T07:04:56.303Z,14.80
2018-12-07T07:07:24.374Z,14.70
2018-12-07T07:09:52.458Z,14.70
2018-12-07T07:12:20.670Z,14.70
2018-12-07T07:14:48.746Z,14.80
2018-12-07T07:17:16.840Z,14.80
2018-12-07T07:19:44.915Z,14.80
2018-12-07T07:22:12.993Z,14.80
2018-12-07T07:24:41.121Z,14.80
2018-12-07T07:27:09.196Z,14.80
2018-12-07T07:29:37.272Z,14.80
2018-12-07T07:32:05.365Z,14.80
2018-12-07T07:34:33.476Z,14.90
2018-12-07T07:37:01.538Z,14.90
2018-12-07T07:39:29.617Z,14.90
2018-12-07T07:41:57.698Z,14.90
2018-12-07T07:44:25.773Z,14.90
2018-12-07T07:46:54.313Z,15.00
2018-12-07T07:49:22.397Z,14.90
2018-12-07T07:51:50.473Z,15.00
2018-12-07T07:54:18.581Z,15.00
2018-12-07T07:56:46.662Z,15.00
2018-12-07T07:59:14.741Z,15.10
2018-12-07T08:01:42.842Z,15.10
2018-12-07T08:04:10.919Z,15.10
2018-12-07T08:06:39.049Z,15.10
2018-12-07T08:09:07.462Z,15.20
2018-12-07T08:11:35.540Z,15.20
2018-12-07T08:14:03.801Z,15.20
2018-12-07T08:16:31.886Z,15.20
2018-12-07T08:18:59.955Z,15.20
2018-12-07T08:21:28.061Z,15.30
2018-12-07T08:23:56.145Z,15.30
2018-12-07T08:26:24.233Z,15.30
2018-12-07T08:28:53.130Z,15.30
2018-12-07T08:31:21.549Z,15.30
2018-12-07T08:33:49.624Z,15.30
2018-12-07T08:36:17.687Z,15.30
2018-12-07T08:38:45.784Z,15.40
2018-12-07T08:41:13.877Z,15.40
2018-12-07T08:43:41.953Z,15.40
2018-12-07T08:46:10.036Z,15.40
2018-12-07T08:48:38.182Z,15.40
2018-12-07T08:51:06.245Z,15.50
2018-12-07T08:53:34.808Z,15.50
2018-12-07T08:56:02.893Z,15.50
2018-12-07T08:58:30.963Z,15.60
2018-12-07T09:00:59.045Z,15.50
2018-12-07T09:03:27.115Z,15.60
2018-12-07T09:05:55.188Z,15.60
2018-12-07T09:08:23.283Z,15.60
2018-12-07T09:10:51.348Z,15.60
2018-12-07T09:13:19.425Z,15.70
2018-12-07T09:15:48.229Z,15.70
2018-12-07T09:18:16.294Z,15.70
2018-12-07T09:20:44.374Z,15.70
2018-12-07T09:23:12.462Z,15.80
2018-12-07T09:25:44.300Z,15.80
2018-12-07T09:28:12.379Z,17.00
2018-12-07T09:30:41.239Z,15.80
2018-12-07T09:33:10.194Z,15.80
2018-12-07T09:35:38.269Z,15.80
2018-12-07T09:38:12.952Z,15.80
2018-12-07T09:40:36.829Z,15.90
2018-12-07T09:43:04.904Z,15.90
2018-12-07T09:45:33.000Z,15.90
2018-12-07T09:48:01.075Z,15.90
2018-12-07T09:50:29.154Z,16.00
2018-12-07T09:52:57.233Z,16.00
2018-12-07T09:55:25.338Z,16.00
2018-12-07T09:57:53.434Z,16.00
2018-12-07T10:00:21.867Z,16.10
2018-12-07T10:02:49.957Z,16.00
2018-12-07T10:05:18.011Z,16.00
2018-12-07T10:07:46.097Z,16.10
2018-12-07T10:10:14.185Z,16.10
2018-12-07T10:12:42.295Z,16.10
2018-12-07T10:15:10.381Z,16.10
2018-12-07T10:17:38.953Z,16.10
2018-12-07T10:20:07.877Z,16.10
2018-12-07T10:22:37.880Z,16.10
2018-12-07T10:25:07.991Z,16.10
2018-12-07T10:27:36.062Z,16.10
2018-12-07T10:30:05.337Z,16.10
2018-12-07T10:32:33.476Z,16.20
2018-12-07T10:35:01.597Z,16.20
2018-12-07T10:37:29.800Z,16.30
2018-12-07T10:39:57.855Z,16.30
2018-12-07T10:42:25.946Z,16.30
2018-12-07T10:44:54.039Z,16.40
2018-12-07T10:47:22.121Z,16.40
2018-12-07T10:49:50.203Z,16.40
2018-12-07T10:52:18.276Z,16.50
2018-12-07T10:54:46.367Z,16.50
2018-12-07T10:57:14.444Z,16.50
2018-12-07T10:59:42.529Z,16.50
2018-12-07T11:02:16.212Z,16.60
2018-12-07T11:04:51.357Z,16.60
2018-12-07T11:07:24.889Z,16.60
2018-12-07T11:09:58.470Z,16.60
2018-12-07T11:12:32.090Z,16.60
2018-12-07T11:15:05.833Z,16.70
2018-12-07T11:17:39.478Z,16.70
2018-12-07T11:20:13.515Z,16.70
2018-12-07T11:22:47.315Z,16.70
2018-12-07T11:25:20.884Z,16.70
2018-12-07T11:27:54.597Z,16.70
2018-12-07T11:30:28.506Z,16.70
2018-12-07T11:33:02.140Z,16.70
2018-12-07T11:35:32.463Z,16.70
2018-12-07T11:38:00.631Z,16.80
2018-12-07T11:40:28.822Z,16.70
2018-12-07T11:42:56.993Z,16.80
2018-12-07T11:45:25.073Z,16.80
2018-12-07T11:47:53.136Z,16.80
2018-12-07T11:50:21.230Z,16.80
2018-12-07T11:52:49.302Z,16.80
2018-12-07T11:55:17.363Z,16.80
2018-12-07T11:57:45.806Z,16.80
2018-12-07T12:00:13.912Z,16.80
2018-12-07T12:02:42.031Z,16.90
2018-12-07T12:05:10.125Z,16.90
2018-12-07T12:07:38.185Z,16.80
2018-12-07T12:10:08.194Z,16.80
2018-12-07T12:12:36.286Z,16.80
2018-12-07T12:15:06.121Z,16.80
2018-12-07T12:17:34.181Z,16.80
2018-12-07T12:20:03.038Z,16.80
2018-12-07T12:22:31.734Z,16.80
2018-12-07T12:24:59.828Z,16.70
2018-12-07T12:27:27.918Z,16.80
2018-12-07T12:29:56.020Z,16.80
2018-12-07T12:32:24.106Z,16.80
2018-12-07T12:34:52.209Z,16.70
2018-12-07T12:37:20.304Z,16.70
2018-12-07T12:39:48.374Z,16.70
2018-12-07T12:42:16.650Z,16.70
2018-12-07T12:44:44.722Z,16.70
2018-12-07T12:47:12.838Z,16.70
2018-12-07T12:49:40.935Z,16.70
2018-12-07T12:52:08.997Z,16.70
2018-12-07T12:54:38.065Z,16.60
2018-12-07T12:57:06.156Z,16.60
2018-12-07T12:59:34.235Z,16.60
2018-12-07T13:02:02.546Z,16.60
2018-12-07T13:04:30.917Z,16.60
2018-12-07T13:06:59.001Z,16.50
2018-12-07T13:09:27.088Z,16.50
2018-12-07T13:11:55.198Z,16.50
2018-12-07T13:14:23.265Z,16.40
2018-12-07T13:16:51.342Z,16.40
2018-12-07T13:19:19.417Z,16.40
2018-12-07T13:21:47.503Z,16.30
2018-12-07T13:24:16.051Z,16.30
2018-12-07T13:26:44.601Z,16.30
2018-12-07T13:29:12.671Z,16.30
2018-12-07T13:31:40.737Z,16.30
2018-12-07T13:34:08.821Z,16.20
2018-12-07T13:36:37.558Z,16.20
2018-12-07T13:39:07.112Z,16.30
2018-12-07T13:41:35.315Z,16.20
2018-12-07T13:44:03.751Z,16.20
2018-12-07T13:46:32.198Z,16.20
2018-12-07T13:49:00.971Z,16.20
2018-12-07T13:51:29.296Z,16.10
2018-12-07T13:53:57.456Z,16.10
2018-12-07T13:56:25.695Z,16.10
2018-12-07T13:58:53.849Z,16.10
2018-12-07T14:01:22.073Z,16.10
2018-12-07T14:03:50.280Z,16.10
2018-12-07T14:06:18.436Z,16.10
2018-12-07T14:08:46.684Z,16.10
2018-12-07T14:11:15.389Z,16.10
2018-12-07T14:13:43.541Z,16.10
2018-12-07T14:16:11.825Z,16.10
2018-12-07T14:18:40.173Z,16.00
2018-12-07T14:21:08.374Z,16.00
2018-12-07T14:23:36.693Z,16.00
2018-12-07T14:26:05.098Z,16.00
2018-12-07T14:28:33.285Z,16.00
2018-12-07T14:31:01.545Z,16.00
2018-12-07T14:33:30.088Z,16.00
2018-12-07T14:35:58.346Z,16.00
2018-12-07T14:38:26.643Z,16.00
2018-12-07T14:40:54.818Z,16.00
2018-12-07T14:43:23.071Z,16.00
2018-12-07T14:45:51.257Z,15.90
2018-12-07T14:48:19.507Z,15.90
2018-12-07T14:50:47.661Z,15.90
2018-12-07T14:53:15.799Z,15.90
2018-12-07T14:55:44.690Z,15.90
2018-12-07T14:58:12.987Z,15.80
2018-12-07T15:00:41.302Z,15.80
2018-12-07T15:03:09.722Z,15.80
2018-12-07T15:05:38.300Z,15.70
2018-12-07T15:08:06.599Z,15.70
2018-12-07T15:10:34.996Z,15.70
2018-12-07T15:13:03.133Z,15.60
2018-12-07T15:15:31.390Z,15.60
2018-12-07T15:17:59.813Z,15.60
2018-12-07T15:20:28.275Z,15.60
2018-12-07T15:22:57.939Z,15.50
2018-12-07T15:25:26.161Z,15.50
2018-12-07T15:27:55.367Z,15.50
2018-12-07T15:30:23.576Z,15.50
2018-12-07T15:32:51.742Z,15.50
2018-12-07T15:35:20.036Z,15.40
2018-12-07T15:37:48.137Z,15.40
2018-12-07T15:40:16.754Z,15.40
2018-12-07T15:42:44.825Z,15.40
2018-12-07T15:45:12.920Z,15.40
2018-12-07T15:47:41.151Z,15.40
2018-12-07T15:50:09.500Z,15.40
2018-12-07T15:52:37.804Z,15.40
2018-12-07T15:55:06.130Z,15.30
2018-12-07T15:57:34.528Z,15.40
2018-12-07T16:00:02.762Z,15.30
2018-12-07T16:02:31.163Z,15.30
2018-12-07T16:04:59.431Z,15.30
2018-12-07T16:07:27.671Z,15.30
2018-12-07T16:09:55.779Z,15.30
2018-12-07T16:12:24.150Z,15.30
2018-12-07T16:14:52.456Z,15.30
2018-12-07T16:17:20.580Z,15.30
2018-12-07T16:19:48.792Z,15.30
2018-12-07T16:22:17.135Z,15.30
2018-12-07T16:24:45.671Z,15.30
2018-12-07T16:27:13.904Z,15.20
2018-12-07T16:29:42.294Z,15.20
2018-12-07T16:32:11.509Z,15.20
2018-12-07T16:34:39.609Z,15.30
2018-12-07T16:37:07.779Z,15.20
2018-12-07T16:39:35.968Z,15.30
2018-12-07T16:42:04.174Z,15.20
2018-12-07T16:44:32.503Z,15.30
2018-12-07T16:47:00.922Z,15.30
2018-12-07T16:49:29.205Z,15.30
2018-12-07T16:51:57.483Z,15.30
2018-12-07T16:54:25.669Z,15.30
2018-12-07T16:56:53.886Z,15.30
2018-12-07T16:59:22.061Z,15.30
2018-12-07T17:01:50.226Z,15.30
2018-12-07T17:04:18.516Z,15.30
2018-12-07T17:06:46.684Z,15.30
2018-12-07T17:09:15.446Z,15.30
2018-12-07T17:11:43.748Z,15.30
2018-12-07T17:14:12.118Z,15.30
2018-12-07T17:16:40.368Z,15.30
2018-12-07T17:19:08.616Z,15.30
2018-12-07T17:21:36.976Z,15.30
2018-12-07T17:24:05.257Z,15.30
2018-12-07T17:26:33.592Z,15.30
2018-12-07T17:29:01.826Z,15.30
2018-12-07T17:31:30.947Z,15.40
2018-12-07T17:33:59.132Z,15.30
2018-12-07T17:36:27.445Z,15.30
2018-12-07T17:38:55.623Z,15.30
2018-12-07T17:41:23.744Z,15.30
2018-12-07T17:43:52.169Z,15.30
2018-12-07T17:46:20.299Z,15.30
2018-12-07T17:48:48.399Z,15.30
2018-12-07T17:51:16.599Z,15.30
2018-12-07T17:53:45.330Z,15.30
2018-12-07T17:56:13.603Z,15.30
2018-12-07T17:58:41.952Z,15.30
2018-12-07T18:01:10.692Z,15.30
2018-12-07T18:03:38.747Z,15.30
2018-12-07T18:06:06.948Z,15.30
2018-12-07T18:08:35.271Z,15.30
2018-12-07T18:11:03.427Z,15.30
2018-12-07T18:13:31.618Z,15.30
2018-12-07T18:15:59.963Z,15.20
2018-12-07T18:18:28.173Z,15.30
2018-12-07T18:20:56.426Z,15.20
2018-12-07T18:23:24.580Z,15.20
2018-12-07T18:25:52.908Z,15.20
2018-12-07T18:28:21.059Z,15.20
2018-12-07T18:30:49.317Z,15.10
2018-12-07T18:33:18.026Z,15.10
2018-12-07T18:35:46.407Z,15.10
2018-12-07T18:38:15.180Z,15.10
2018-12-07T18:40:43.581Z,15.10
2018-12-07T18:43:12.002Z,15.10
2018-12-07T18:45:40.303Z,15.10
2018-12-07T18:48:08.629Z,15.00
2018-12-07T18:50:36.894Z,15.00
2018-12-07T18:53:05.100Z,15.00
2018-12-07T18:55:33.311Z,15.00
2018-12-07T18:58:01.671Z,15.00
2018-12-07T19:00:30.155Z,15.00
2018-12-07T19:02:58.374Z,15.00
2018-12-07T19:05:26.981Z,15.00
2018-12-07T19:07:55.216Z,14.90
2018-12-07T19:10:23.555Z,14.90
2018-12-07T19:12:51.774Z,14.90
2018-12-07T19:15:19.931Z,14.90
2018-12-07T19:17:48.026Z,14.90
2018-12-07T19:20:16.157Z,14.80
2018-12-07T19:22:44.589Z,14.80
2018-12-07T19:25:12.828Z,14.80
2018-12-07T19:27:40.979Z,14.80
2018-12-07T19:30:14.603Z,14.80
2018-12-07T19:32:40.407Z,14.80
2018-12-07T19:35:09.169Z,14.70
2018-12-07T19:37:37.399Z,14.70
2018-12-07T19:40:06.880Z,14.70
2018-12-07T19:42:34.995Z,14.70
2018-12-07T19:45:03.926Z,14.70
2018-12-07T19:47:32.041Z,14.60
2018-12-07T19:50:00.420Z,14.60
2018-12-07T19:52:28.908Z,14.60
2018-12-07T19:54:57.160Z,14.60
2018-12-07T19:57:25.436Z,14.60
2018-12-07T19:59:54.057Z,14.60
2018-12-07T20:02:22.436Z,14.60
2018-12-07T20:04:50.679Z,14.60
2018-12-07T20:07:19.485Z,14.50
2018-12-07T20:09:47.623Z,14.50
2018-12-07T20:12:15.778Z,14.50
2018-12-07T20:14:43.907Z,14.50
2018-12-07T20:17:12.138Z,14.50
2018-12-07T20:19:40.253Z,14.50
2018-12-07T20:22:08.373Z,14.50
2018-12-07T20:24:36.444Z,14.50
2018-12-07T20:27:04.811Z,14.50
2018-12-07T20:29:33.447Z,14.50
2018-12-07T20:32:01.656Z,14.50
2018-12-07T20:34:29.737Z,14.50
2018-12-07T20:36:58.621Z,14.50
2018-12-07T20:39:27.022Z,14.50
2018-12-07T20:41:55.333Z,14.50
2018-12-07T20:44:23.696Z,14.50
2018-12-07T20:46:52.021Z,14.50
2018-12-07T20:49:20.349Z,14.40
2018-12-07T20:51:48.676Z,14.40
2018-12-07T20:54:16.889Z,14.40
2018-12-07T20:56:45.355Z,14.40
2018-12-07T20:59:13.516Z,14.40
2018-12-07T21:01:41.780Z,14.40
2018-12-07T21:07:42.402Z,14.40
2018-12-07T21:10:56.605Z,14.30
2018-12-07T21:14:03.450Z,14.30
2018-12-07T21:17:10.876Z,14.20
2018-12-07T21:19:45.392Z,14.20
2018-12-07T21:22:13.872Z,14.10
2018-12-07T21:24:42.056Z,14.00
2018-12-07T21:27:10.232Z,14.00
2018-12-07T21:29:38.630Z,14.00
2018-12-07T21:32:11.543Z,14.00
2018-12-07T21:35:01.142Z,13.90
2018-12-07T21:37:31.019Z,13.90
2018-12-07T21:40:05.484Z,13.90
2018-12-07T21:42:33.715Z,13.90
2018-12-07T21:45:01.958Z,13.90
2018-12-07T21:47:43.348Z,13.90
2018-12-07T21:50:15.815Z,13.90
2018-12-07T21:52:43.963Z,13.90
2018-12-07T21:55:12.352Z,13.90
2018-12-07T21:57:40.485Z,13.90
2018-12-07T22:00:08.673Z,13.90
2018-12-07T22:02:36.872Z,14.00
2018-12-07T22:05:05.297Z,14.00
2018-12-07T22:07:33.799Z,14.00
2018-12-07T22:10:02.255Z,14.00
2018-12-07T22:12:30.634Z,14.00
2018-12-07T22:14:58.860Z,14.00
2018-12-07T22:17:27.146Z,14.00
2018-12-07T22:19:55.523Z,14.00
2018-12-07T22:22:23.656Z,14.00
2018-12-07T22:24:51.724Z,14.00
2018-12-07T22:27:20.142Z,14.00
2018-12-07T22:29:48.357Z,14.00
2018-12-07T22:32:16.849Z,14.00
2018-12-07T22:34:45.025Z,14.00
2018-12-07T22:37:13.352Z,14.00
2018-12-07T22:39:41.895Z,14.00
2018-12-07T22:42:10.319Z,14.10
2018-12-07T22:44:38.494Z,14.10
2018-12-07T22:47:06.796Z,14.10
2018-12-07T22:49:34.971Z,14.10
2018-12-07T22:52:03.079Z,14.10
2018-12-07T22:54:31.142Z,14.10
2018-12-07T22:56:59.230Z,14.10
2018-12-07T22:59:27.335Z,14.10
2018-12-07T23:01:55.408Z,14.10
2018-12-07T23:04:23.486Z,14.10
2018-12-07T23:06:51.572Z,14.10
2018-12-07T23:09:19.633Z,14.10
2018-12-07T23:11:47.715Z,14.10
2018-12-07T23:14:15.821Z,14.10
2018-12-07T23:16:43.894Z,14.10
2018-12-07T23:19:12.031Z,14.10
2018-12-07T23:21:40.093Z,14.10
2018-12-07T23:24:08.205Z,14.10
2018-12-07T23:26:36.281Z,14.10
2018-12-07T23:29:10.089Z,14.10
2018-12-07T23:31:38.140Z,14.00
2018-12-07T23:34:06.208Z,14.10
2018-12-07T23:36:34.476Z,14.00
2018-12-07T23:39:02.565Z,14.00
2018-12-07T23:41:30.856Z,14.00
2018-12-07T23:43:58.951Z,14.00
2018-12-07T23:46:27.020Z,14.00
2018-12-07T23:48:55.090Z,14.00
2018-12-07T23:51:23.261Z,14.00
2018-12-07T23:53:51.334Z,14.00
2018-12-07T23:56:19.415Z,14.00
2018-12-07T23:58:47.550Z,13.90
